Time;durP1;ratioP1;P1;durP2;ratioP2;P2;SDS_P1;SDS_P2;PMS_P1;PMS_P2;Temp;Humidity;BMP_temperature;BMP_pressure;BME280_temperature;BME280_humidity;BME280_pressure;Samples;Min_cycle;Max_cycle;Signal;HPM_P1;HPM_P2
2022/07/08 00:02:00;;;;;;;11.07;3.28;;;14.60;99.90;;;;;;5036614;28;20025;-63
2022/07/08 00:04:26;;;;;;;7.90;2.95;;;14.60;99.90;;;;;;5032567;28;20041;-64
2022/07/08 00:06:52;;;;;;;3.92;2.20;;;14.60;99.90;;;;;;5032842;28;20022;-63
2022/07/08 00:09:18;;;;;;;3.80;2.10;;;14.60;99.90;;;;;;5032163;28;20039;-63
2022/07/08 00:11:44;;;;;;;4.75;2.28;;;14.60;99.90;;;;;;5031360;28;20021;-64
2022/07/08 00:14:10;;;;;;;6.15;2.42;;;14.60;99.90;;;;;;5026368;28;20040;-64
2022/07/08 00:16:40;;;;;;;5.55;2.33;;;14.60;99.90;;;;;;5031464;28;20056;-63
2022/07/08 00:19:14;;;;;;;7.68;2.58;;;14.50;99.90;;;;;;5043045;28;20401;-64
2022/07/08 00:21:43;;;;;;;12.48;2.50;;;14.50;99.90;;;;;;5018652;28;20029;-64
2022/07/08 00:24:14;;;;;;;8.95;2.58;;;14.50;99.90;;;;;;5029199;28;20071;-63
2022/07/08 00:26:40;;;;;;;6.20;2.22;;;14.50;99.90;;;;;;5022967;28;20447;-62
2022/07/08 00:29:06;;;;;;;5.80;3.00;;;14.50;99.90;;;;;;5042023;28;20077;-63
2022/07/08 00:31:32;;;;;;;7.18;2.38;;;14.60;99.90;;;;;;5034683;28;20021;-64
2022/07/08 00:33:58;;;;;;;9.23;1.70;;;14.50;99.90;;;;;;5028519;28;20045;-67
2022/07/08 00:36:25;;;;;;;6.65;2.58;;;14.50;99.90;;;;;;5037136;28;20036;-63
2022/07/08 00:38:51;;;;;;;10.30;1.80;;;14.50;99.90;;;;;;5035677;28;20025;-64
2022/07/08 00:41:16;;;;;;;7.18;2.22;;;14.50;99.90;;;;;;5032367;28;20385;-64
2022/07/08 00:43:45;;;;;;;5.45;2.03;;;14.50;99.90;;;;;;5033785;28;20128;-64
2022/07/08 00:46:14;;;;;;;12.65;2.13;;;14.50;99.90;;;;;;5045074;28;20027;-64
2022/07/08 00:48:40;;;;;;;9.18;2.10;;;14.50;99.90;;;;;;5034632;28;20037;-64
2022/07/08 00:51:08;;;;;;;5.25;1.88;;;14.50;99.90;;;;;;5034808;28;20025;-64
2022/07/08 00:53:35;;;;;;;5.22;1.65;;;14.50;99.90;;;;;;5031056;28;20029;-64
2022/07/08 00:56:02;;;;;;;9.15;2.60;;;14.50;99.90;;;;;;5034984;28;20025;-64
2022/07/08 00:58:28;;;;;;;8.40;2.10;;;14.50;99.90;;;;;;5036567;28;20037;-64
2022/07/08 01:00:54;;;;;;;5.75;1.73;;;14.50;99.90;;;;;;5030026;28;20057;-64
2022/07/08 01:03:20;;;;;;;6.90;1.80;;;14.50;99.90;;;;;;5032208;28;20069;-64
2022/07/08 01:05:46;;;;;;;4.18;1.83;;;14.50;99.90;;;;;;5038619;28;20022;-64
2022/07/08 01:08:12;;;;;;;8.63;2.70;;;14.50;99.90;;;;;;5038400;28;20152;-64
2022/07/08 01:10:38;;;;;;;7.22;2.50;;;14.40;99.90;;;;;;5037594;28;20025;-64
2022/07/08 01:13:05;;;;;;;4.22;2.10;;;14.40;99.90;;;;;;5022312;28;20091;-64
2022/07/08 01:15:31;;;;;;;6.35;2.08;;;14.30;99.90;;;;;;5034806;28;20080;-64
2022/07/08 01:17:57;;;;;;;5.07;2.20;;;14.30;99.90;;;;;;5038604;28;20378;-64
2022/07/08 01:20:22;;;;;;;5.40;2.65;;;14.30;99.90;;;;;;5036110;28;20057;-64
2022/07/08 01:22:48;;;;;;;10.43;2.17;;;14.20;99.90;;;;;;5037737;28;20091;-65
2022/07/08 01:25:15;;;;;;;8.48;1.90;;;14.10;99.90;;;;;;5033329;28;20032;-66
2022/07/08 01:27:40;;;;;;;4.93;2.00;;;14.10;99.90;;;;;;5038084;28;20025;-70
2022/07/08 01:30:07;;;;;;;7.80;2.00;;;14.10;99.90;;;;;;5030462;28;20077;-64
2022/07/08 01:32:41;;;;;;;2.92;2.10;;;14.00;99.90;;;;;;5036827;28;20036;-64
2022/07/08 01:35:08;;;;;;;2.35;1.50;;;14.00;99.90;;;;;;5030458;28;20083;-67
2022/07/08 01:37:34;;;;;;;6.32;2.58;;;14.00;99.90;;;;;;5035660;28;20103;-65
2022/07/08 01:40:00;;;;;;;5.13;2.08;;;13.90;99.90;;;;;;5032585;28;20079;-64
2022/07/08 01:42:26;;;;;;;4.35;2.00;;;13.90;99.90;;;;;;5029930;28;20033;-64
2022/07/08 01:44:52;;;;;;;3.20;2.15;;;13.80;99.90;;;;;;5045051;28;20366;-65
2022/07/08 01:47:19;;;;;;;5.78;2.33;;;13.80;99.90;;;;;;5036936;28;20029;-64
2022/07/08 01:49:45;;;;;;;6.75;2.30;;;13.70;99.90;;;;;;5038049;28;20028;-64
2022/07/08 01:52:11;;;;;;;4.68;2.17;;;13.70;99.90;;;;;;5038542;28;20042;-64
2022/07/08 01:54:36;;;;;;;6.20;2.22;;;13.80;99.90;;;;;;5032323;28;20120;-64
2022/07/08 01:57:14;;;;;;;3.25;2.03;;;13.80;99.90;;;;;;5031810;28;20524;-67
2022/07/08 01:59:44;;;;;;;3.50;2.33;;;13.70;99.90;;;;;;5028896;28;20021;-65
2022/07/08 02:02:11;;;;;;;11.15;3.17;;;13.70;99.90;;;;;;5026384;28;20178;-65
2022/07/08 02:04:37;;;;;;;8.02;3.20;;;13.80;99.90;;;;;;5038492;28;20043;-63
2022/07/08 02:07:04;;;;;;;11.73;3.40;;;13.70;99.90;;;;;;5037127;28;20078;-62
2022/07/08 02:09:30;;;;;;;9.80;3.70;;;13.70;99.90;;;;;;5034645;28;20441;-62
2022/07/08 02:14:40;;;;;;;7.57;3.47;;;13.40;99.90;;;;;;5032223;28;20048;-62
2022/07/08 02:17:06;;;;;;;5.93;3.88;;;13.20;99.90;;;;;;5030228;28;20022;-62
2022/07/08 02:19:33;;;;;;;8.82;4.07;;;13.10;99.90;;;;;;5030173;28;20049;-63
2022/07/08 02:21:59;;;;;;;9.30;4.15;;;12.90;99.90;;;;;;5024266;28;20026;-63
2022/07/08 02:24:25;;;;;;;5.82;4.38;;;12.80;99.90;;;;;;5031269;28;20040;-63
2022/07/08 02:26:51;;;;;;;6.00;4.07;;;12.60;99.90;;;;;;5033080;28;20025;-58
2022/07/08 02:29:16;;;;;;;8.73;4.28;;;12.70;99.90;;;;;;5034911;28;20071;-63
2022/07/08 02:31:42;;;;;;;10.23;4.95;;;12.70;99.90;;;;;;5032393;28;20389;-63
2022/07/08 02:34:08;;;;;;;10.02;4.35;;;12.60;99.90;;;;;;5037009;28;20025;-62
2022/07/08 02:36:33;;;;;;;8.45;4.22;;;12.60;99.90;;;;;;5034704;28;20022;-63
2022/07/08 02:38:59;;;;;;;9.52;4.97;;;12.70;99.90;;;;;;5033952;28;20083;-63
2022/07/08 02:41:24;;;;;;;6.88;4.18;;;12.60;99.90;;;;;;5032660;28;20084;-63
2022/07/08 02:43:50;;;;;;;9.93;4.22;;;12.50;99.90;;;;;;5037395;28;20112;-63
2022/07/08 02:46:16;;;;;;;9.02;3.92;;;12.60;99.90;;;;;;5037123;28;20025;-64
2022/07/08 02:48:41;;;;;;;8.85;4.30;;;12.60;99.90;;;;;;5037067;28;20056;-63
2022/07/08 02:51:07;;;;;;;8.85;4.13;;;12.60;99.90;;;;;;5043678;28;20379;-63
2022/07/08 02:53:33;;;;;;;5.65;3.80;;;12.60;99.90;;;;;;5020757;28;20030;-63
2022/07/08 02:55:59;;;;;;;5.45;3.55;;;12.70;99.90;;;;;;5027812;28;20021;-63
2022/07/08 02:58:24;;;;;;;6.88;4.38;;;12.60;99.90;;;;;;5032993;28;20030;-63
2022/07/08 03:00:50;;;;;;;6.43;3.72;;;12.50;99.90;;;;;;5030389;28;20482;-62
2022/07/08 03:03:16;;;;;;;6.63;3.70;;;12.50;99.90;;;;;;5036722;28;20041;-63
2022/07/08 03:05:41;;;;;;;7.65;4.05;;;12.50;99.90;;;;;;5032531;28;20030;-62
2022/07/08 03:08:07;;;;;;;7.85;4.00;;;12.40;99.90;;;;;;5029783;28;20032;-63
2022/07/08 03:10:32;;;;;;;5.90;4.03;;;12.50;99.90;;;;;;5028745;28;20481;-62
2022/07/08 03:12:59;;;;;;;13.25;4.15;;;12.40;99.90;;;;;;5041179;28;20033;-62
2022/07/08 03:15:25;;;;;;;8.35;5.22;;;12.40;99.90;;;;;;5032163;28;20477;-63
2022/07/08 03:17:51;;;;;;;10.35;4.88;;;12.50;99.90;;;;;;5033944;28;20025;-63
2022/07/08 03:20:17;;;;;;;10.88;6.50;;;12.50;99.90;;;;;;5045925;28;20467;-63
2022/07/08 03:22:43;;;;;;;8.70;4.55;;;12.60;99.90;;;;;;5036586;28;20047;-63
2022/07/08 03:25:09;;;;;;;8.00;4.47;;;12.60;99.90;;;;;;5037794;28;20033;-63
2022/07/08 03:27:35;;;;;;;5.07;3.35;;;12.50;99.90;;;;;;5026555;28;20120;-63
2022/07/08 03:30:00;;;;;;;8.43;4.30;;;12.50;99.90;;;;;;5032364;28;20385;-63
2022/07/08 03:32:26;;;;;;;7.40;4.85;;;12.50;99.90;;;;;;5040160;28;20120;-63
2022/07/08 03:34:52;;;;;;;8.98;4.80;;;12.50;99.90;;;;;;5030069;28;20029;-63
2022/07/08 03:37:18;;;;;;;11.80;6.03;;;12.40;99.90;;;;;;5034298;28;20048;-63
2022/07/08 03:39:44;;;;;;;9.50;5.35;;;12.40;99.90;;;;;;5030498;28;20025;-63
2022/07/08 03:42:09;;;;;;;8.88;4.95;;;12.30;99.90;;;;;;5045619;28;20028;-63
2022/07/08 03:44:35;;;;;;;13.30;5.45;;;12.40;99.90;;;;;;5032535;28;20672;-62
2022/07/08 03:47:01;;;;;;;10.88;5.65;;;12.40;99.90;;;;;;5028916;28;20033;-62
2022/07/08 03:49:26;;;;;;;9.65;4.70;;;12.40;99.90;;;;;;5030954;28;20034;-62
2022/07/08 03:51:53;;;;;;;10.32;4.93;;;12.40;99.90;;;;;;5038768;28;20035;-63
2022/07/08 03:54:19;;;;;;;12.48;6.45;;;12.40;99.90;;;;;;5034253;28;20115;-63
2022/07/08 03:56:45;;;;;;;11.43;6.15;;;12.40;99.90;;;;;;5035501;28;20109;-62
2022/07/08 03:59:10;;;;;;;13.93;6.57;;;12.30;99.90;;;;;;5040618;28;20481;-62
2022/07/08 04:01:36;;;;;;;12.68;5.82;;;12.40;99.90;;;;;;5027659;28;20045;-63
2022/07/08 04:04:02;;;;;;;13.43;6.40;;;12.30;99.90;;;;;;5030786;28;20041;-63
2022/07/08 04:06:28;;;;;;;15.07;6.47;;;12.30;99.90;;;;;;5031155;28;20029;-63
2022/07/08 04:08:53;;;;;;;10.32;5.38;;;12.30;99.90;;;;;;5039629;28;20030;-62
2022/07/08 04:11:19;;;;;;;14.25;5.78;;;12.40;99.90;;;;;;5037681;28;20384;-63
2022/07/08 04:13:44;;;;;;;9.77;5.72;;;12.30;99.90;;;;;;5035297;28;20029;-63
2022/07/08 04:16:12;;;;;;;8.90;5.53;;;12.40;99.90;;;;;;5038149;28;20027;-63
2022/07/08 04:18:39;;;;;;;9.45;5.40;;;12.40;99.90;;;;;;5028998;28;20053;-62
2022/07/08 04:21:09;;;;;;;10.00;5.03;;;12.40;99.90;;;;;;5030305;28;20021;-64
2022/07/08 04:23:35;;;;;;;10.80;5.45;;;12.40;99.90;;;;;;5023703;28;20136;-63
2022/07/08 04:26:01;;;;;;;8.18;6.10;;;12.40;99.90;;;;;;5034084;28;20060;-63
2022/07/08 04:28:27;;;;;;;9.82;5.38;;;12.40;99.90;;;;;;5035016;28;20072;-63
2022/07/08 04:30:53;;;;;;;7.55;5.55;;;12.40;99.90;;;;;;5035077;28;20018;-63
2022/07/08 04:33:18;;;;;;;7.70;4.90;;;12.40;99.90;;;;;;5035978;28;20485;-63
2022/07/08 04:35:44;;;;;;;6.65;4.72;;;12.40;99.90;;;;;;5035439;28;20048;-63
2022/07/08 04:38:10;;;;;;;5.43;4.10;;;12.40;99.90;;;;;;5023620;28;20044;-63
2022/07/08 04:40:35;;;;;;;8.27;4.80;;;12.40;99.90;;;;;;5024679;28;20467;-63
2022/07/08 04:43:01;;;;;;;8.57;4.80;;;12.40;99.90;;;;;;5027370;28;20037;-62
2022/07/08 04:45:27;;;;;;;7.55;5.07;;;12.40;99.90;;;;;;5032791;28;20026;-63
2022/07/08 04:47:53;;;;;;;9.75;4.72;;;12.50;99.90;;;;;;5030934;28;20022;-63
2022/07/08 04:50:19;;;;;;;7.60;4.88;;;12.60;99.90;;;;;;5042918;28;20036;-63
2022/07/08 04:52:45;;;;;;;11.73;4.63;;;12.70;99.90;;;;;;5030030;28;20029;-63
2022/07/08 04:55:44;;;;;;;5.13;4.22;;;12.60;99.90;;;;;;5035020;28;20029;-63
2022/07/08 04:58:04;;;;;;;8.30;4.93;;;12.60;99.90;;;;;;5029906;28;20032;-62
2022/07/08 05:00:31;;;;;;;7.93;5.18;;;12.70;99.90;;;;;;5028873;28;20096;-62
2022/07/08 05:02:57;;;;;;;9.32;5.35;;;12.70;99.90;;;;;;5034711;28;20036;-62
2022/07/08 05:05:23;;;;;;;10.68;6.40;;;12.70;99.90;;;;;;5032057;28;20026;-62
2022/07/08 05:07:49;;;;;;;8.57;4.93;;;12.70;99.90;;;;;;5033032;28;20036;-63
2022/07/08 05:10:21;;;;;;;11.02;5.22;;;12.80;99.90;;;;;;5034892;28;20136;-62
2022/07/08 05:12:48;;;;;;;;;;;12.90;99.90;;;;;;5026912;28;20041;-63
2022/07/08 05:15:14;;;;;;;9.07;5.32;;;12.80;99.90;;;;;;5024296;28;19909;-63
2022/07/08 05:17:40;;;;;;;8.85;5.78;;;12.90;99.90;;;;;;5033508;28;20021;-63
2022/07/08 05:20:07;;;;;;;7.80;5.25;;;12.90;99.90;;;;;;5031926;28;20040;-63
2022/07/08 05:22:33;;;;;;;11.88;6.65;;;12.90;99.90;;;;;;5032763;28;20032;-64
2022/07/08 05:24:59;;;;;;;7.72;5.72;;;12.90;99.90;;;;;;5043725;28;20116;-63
2022/07/08 05:27:25;;;;;;;11.30;5.72;;;12.90;99.90;;;;;;5027278;28;20021;-62
2022/07/08 05:29:50;;;;;;;9.88;5.90;;;12.80;99.90;;;;;;5035086;28;20033;-63
2022/07/08 05:32:17;;;;;;;12.65;6.80;;;12.70;99.90;;;;;;5028503;28;20040;-62
2022/07/08 05:34:44;;;;;;;11.45;5.65;;;12.80;99.90;;;;;;5027244;28;20030;-62
2022/07/08 05:37:11;;;;;;;10.27;6.13;;;12.80;99.90;;;;;;5038047;28;20032;-65
2022/07/08 05:39:38;;;;;;;10.07;5.93;;;12.90;99.90;;;;;;5034900;28;20466;-62
2022/07/08 05:42:04;;;;;;;7.63;6.03;;;12.90;99.90;;;;;;5031733;28;20021;-63
2022/07/08 05:44:30;;;;;;;12.80;5.95;;;13.00;99.90;;;;;;5032031;28;20037;-62
2022/07/08 05:46:55;;;;;;;10.63;5.65;;;13.10;99.90;;;;;;5033132;28;20485;-62
2022/07/08 05:49:21;;;;;;;8.68;5.25;;;13.20;99.90;;;;;;5029754;28;20040;-62
2022/07/08 05:51:47;;;;;;;11.63;6.13;;;13.20;99.90;;;;;;5038438;28;20376;-64
2022/07/08 05:54:12;;;;;;;14.50;6.60;;;13.20;99.90;;;;;;5036711;28;20028;-63
2022/07/08 05:56:38;;;;;;;10.75;6.10;;;13.20;99.90;;;;;;5032727;28;20018;-63
2022/07/08 05:59:04;;;;;;;11.23;6.10;;;13.20;99.90;;;;;;5031231;28;20026;-63
2022/07/08 06:01:29;;;;;;;12.65;5.82;;;13.30;99.90;;;;;;5027565;28;20018;-64
2022/07/08 06:03:55;;;;;;;6.40;4.90;;;13.30;99.90;;;;;;5028862;28;20029;-64
2022/07/08 06:06:21;;;;;;;7.60;5.47;;;13.30;99.90;;;;;;5030383;28;20067;-62
2022/07/08 06:08:46;;;;;;;9.32;5.20;;;13.40;99.90;;;;;;5034358;28;20140;-63
2022/07/08 06:11:12;;;;;;;8.73;5.10;;;13.50;99.90;;;;;;5031631;28;20037;-55
2022/07/08 06:13:38;;;;;;;9.93;5.18;;;13.60;99.90;;;;;;5028939;28;20025;-63
2022/07/08 06:16:04;;;;;;;8.30;5.43;;;13.70;99.90;;;;;;5039306;28;20104;-64
2022/07/08 06:18:29;;;;;;;10.75;5.93;;;13.90;99.90;;;;;;5044873;28;20048;-64
2022/07/08 06:20:55;;;;;;;13.05;5.93;;;14.00;99.90;;;;;;5034559;28;20048;-63
2022/07/08 06:23:20;;;;;;;9.27;5.45;;;14.20;99.90;;;;;;5029963;28;20144;-63
2022/07/08 06:25:46;;;;;;;11.07;5.75;;;14.30;99.90;;;;;;5034681;28;20451;-62
2022/07/08 06:28:12;;;;;;;9.60;5.55;;;14.40;99.90;;;;;;5032004;28;20029;-64
2022/07/08 06:30:37;;;;;;;10.02;5.82;;;14.50;99.90;;;;;;5034359;28;20104;-62
2022/07/08 06:33:05;;;;;;;13.70;6.47;;;14.60;99.90;;;;;;5038792;28;20069;-64
2022/07/08 06:35:32;;;;;;;10.73;7.25;;;14.70;99.90;;;;;;5039916;28;20438;-63
2022/07/08 06:37:57;;;;;;;11.55;6.60;;;14.80;99.90;;;;;;5032662;28;20504;-63
2022/07/08 06:40:23;;;;;;;11.68;6.60;;;14.90;99.90;;;;;;5040635;28;20025;-63
2022/07/08 06:42:49;;;;;;;11.52;7.20;;;15.00;99.90;;;;;;5034315;28;20481;-63
2022/07/08 06:45:15;;;;;;;11.77;6.45;;;15.10;99.90;;;;;;5031684;28;20497;-63
2022/07/08 06:47:42;;;;;;;10.73;7.18;;;15.20;99.90;;;;;;5035719;28;20017;-62
2022/07/08 06:50:08;;;;;;;12.25;6.80;;;15.20;99.90;;;;;;5036033;28;20029;-62
2022/07/08 06:52:34;;;;;;;12.55;6.53;;;15.30;99.90;;;;;;5033402;28;20018;-62
2022/07/08 06:55:00;;;;;;;10.18;7.25;;;15.40;99.90;;;;;;5038678;28;20078;-62
2022/07/08 06:57:26;;;;;;;13.05;6.13;;;15.40;99.90;;;;;;5033918;28;20028;-63
2022/07/08 06:59:52;;;;;;;11.27;6.60;;;15.50;99.90;;;;;;5032151;28;20029;-62
2022/07/08 07:02:18;;;;;;;9.85;5.65;;;15.60;99.90;;;;;;5029640;28;20059;-63
2022/07/08 07:04:44;;;;;;;7.43;5.50;;;15.70;99.90;;;;;;5032009;28;20047;-63
2022/07/08 07:07:10;;;;;;;10.40;6.15;;;15.70;99.90;;;;;;5040523;28;20492;-63
2022/07/08 07:09:38;;;;;;;11.15;6.93;;;15.70;99.90;;;;;;5039138;28;20033;-64
2022/07/08 07:12:05;;;;;;;14.48;7.97;;;15.80;99.90;;;;;;5031082;28;20030;-65
2022/07/08 07:14:32;;;;;;;12.00;7.50;;;15.90;99.90;;;;;;5030727;28;20094;-63
2022/07/08 07:16:57;;;;;;;17.83;8.18;;;16.00;99.90;;;;;;5034295;28;20029;-64
2022/07/08 07:19:23;;;;;;;8.00;7.00;;;16.10;99.90;;;;;;5038717;28;20056;-64
2022/07/08 07:21:49;;;;;;;10.45;6.50;;;16.20;99.90;;;;;;5035673;28;20040;-62
2022/07/08 07:24:15;;;;;;;12.27;7.32;;;16.20;99.90;;;;;;5039466;28;20509;-61
2022/07/08 07:26:41;;;;;;;11.32;7.40;;;16.30;99.90;;;;;;5033188;28;20099;-62
2022/07/08 07:29:08;;;;;;;15.40;7.22;;;16.30;99.90;;;;;;5023588;28;20118;-63
2022/07/08 07:31:34;;;;;;;14.18;7.63;;;16.40;99.90;;;;;;5032853;28;20473;-62
2022/07/08 07:34:01;;;;;;;10.75;7.13;;;16.50;99.90;;;;;;5032451;28;20083;-63
2022/07/08 07:36:27;;;;;;;10.75;7.00;;;16.50;99.90;;;;;;5034536;28;20040;-62
2022/07/08 07:38:53;;;;;;;11.20;7.53;;;16.70;99.90;;;;;;5031208;28;20022;-62
2022/07/08 07:41:22;;;;;;;11.02;6.40;;;16.70;99.90;;;;;;5021946;28;20113;-62
2022/07/08 07:43:48;;;;;;;11.25;7.55;;;16.80;99.90;;;;;;5021735;28;20125;-63
2022/07/08 07:46:14;;;;;;;14.20;7.93;;;16.80;99.90;;;;;;5022468;28;20026;-64
2022/07/08 07:48:39;;;;;;;9.98;5.95;;;17.00;99.90;;;;;;5022522;28;20032;-63
2022/07/08 07:51:05;;;;;;;9.05;6.85;;;17.10;99.90;;;;;;5019529;28;20426;-65
2022/07/08 07:53:31;;;;;;;10.48;6.68;;;17.30;99.90;;;;;;5032785;28;20033;-64
2022/07/08 07:55:57;;;;;;;11.23;6.85;;;17.40;99.90;;;;;;5022539;28;20109;-64
2022/07/08 07:58:24;;;;;;;8.50;6.30;;;17.50;99.90;;;;;;5030031;28;20033;-63
2022/07/08 08:00:51;;;;;;;11.82;6.47;;;17.60;99.90;;;;;;5018776;28;20021;-65
2022/07/08 08:03:16;;;;;;;11.75;6.15;;;17.60;99.90;;;;;;5028228;28;20405;-63
2022/07/08 08:05:42;;;;;;;8.63;5.68;;;17.60;99.90;;;;;;5035068;28;20468;-65
2022/07/08 08:08:09;;;;;;;10.63;5.75;;;17.70;99.90;;;;;;5033338;28;20033;-64
2022/07/08 08:10:35;;;;;;;9.43;5.60;;;17.80;99.90;;;;;;5031475;28;20441;-63
2022/07/08 08:13:00;;;;;;;7.22;5.35;;;17.80;99.90;;;;;;5025884;28;20565;-65
2022/07/08 08:15:29;;;;;;;8.60;5.50;;;17.80;99.90;;;;;;5030846;28;20049;-63
2022/07/08 08:17:55;;;;;;;11.68;5.72;;;17.90;99.90;;;;;;5029877;28;20030;-64
2022/07/08 08:20:24;;;;;;;9.80;5.47;;;18.00;99.90;;;;;;5035872;28;20110;-64
2022/07/08 08:22:49;;;;;;;8.25;5.78;;;18.20;99.90;;;;;;5032296;28;20025;-64
2022/07/08 08:25:15;;;;;;;8.45;5.63;;;18.30;99.90;;;;;;5030305;28;20029;-64
2022/07/08 08:27:40;;;;;;;9.38;4.72;;;18.40;99.90;;;;;;5027974;28;20326;-64
2022/07/08 08:30:07;;;;;;;12.20;5.82;;;18.40;99.90;;;;;;5029326;28;20516;-63
2022/07/08 08:32:33;;;;;;;8.43;5.75;;;18.40;99.90;;;;;;5025779;28;20033;-63
2022/07/08 08:34:59;;;;;;;10.15;4.95;;;18.60;99.90;;;;;;5029099;28;20025;-63
2022/07/08 08:37:27;;;;;;;9.00;6.10;;;18.70;99.90;;;;;;5030117;28;20472;-64
2022/07/08 08:39:53;;;;;;;10.52;5.30;;;18.70;99.90;;;;;;5035104;28;20114;-64
2022/07/08 08:42:20;;;;;;;4.95;4.25;;;18.90;99.90;;;;;;5025283;28;20505;-63
2022/07/08 08:44:49;;;;;;;9.15;4.82;;;18.90;99.90;;;;;;5031860;28;20500;-64
2022/07/08 08:47:16;;;;;;;8.73;5.28;;;19.00;99.90;;;;;;5030053;28;20099;-64
2022/07/08 08:49:42;;;;;;;11.10;6.10;;;19.00;99.90;;;;;;5028056;28;20022;-65
2022/07/08 08:52:10;;;;;;;9.82;5.93;;;19.10;99.90;;;;;;5034588;28;20021;-64
2022/07/08 08:54:37;;;;;;;9.13;4.55;;;19.30;99.90;;;;;;5026621;28;20036;-64
2022/07/08 08:57:05;;;;;;;5.47;4.10;;;19.40;99.90;;;;;;5030703;28;20037;-65
2022/07/08 08:59:33;;;;;;;9.65;5.80;;;19.30;99.90;;;;;;5024868;28;20040;-67
2022/07/08 09:02:00;;;;;;;10.23;6.05;;;19.40;99.90;;;;;;5028516;28;20030;-66
2022/07/08 09:04:33;;;;;;;8.65;5.50;;;19.60;99.90;;;;;;5028050;28;20584;-65
2022/07/08 09:07:00;;;;;;;9.48;5.32;;;19.70;99.90;;;;;;5031144;28;20026;-65
2022/07/08 09:09:26;;;;;;;7.85;3.88;;;19.90;99.90;;;;;;5028138;28;20547;-64
2022/07/08 09:11:52;;;;;;;7.70;4.43;;;20.00;99.90;;;;;;5025317;28;20022;-65
2022/07/08 09:14:20;;;;;;;8.00;5.18;;;20.00;99.90;;;;;;5032556;28;20029;-66
2022/07/08 09:17:08;;;;;;;8.63;5.10;;;20.20;99.90;;;;;;5034787;28;20036;-66
2022/07/08 09:19:34;;;;;;;13.15;5.55;;;20.40;99.90;;;;;;5027781;28;20065;-66
2022/07/08 09:22:00;;;;;;;12.63;5.03;;;20.50;99.90;;;;;;5028197;28;20103;-66
2022/07/08 09:24:30;;;;;;;9.40;5.00;;;20.60;99.90;;;;;;5027763;28;20054;-65
2022/07/08 09:26:55;;;;;;;8.52;4.88;;;20.70;99.90;;;;;;5036304;28;20031;-65
2022/07/08 09:29:22;;;;;;;7.72;4.95;;;20.80;99.90;;;;;;5030800;28;20116;-65
2022/07/08 09:31:47;;;;;;;7.05;4.50;;;20.80;99.90;;;;;;5028476;28;20389;-65
2022/07/08 09:34:16;;;;;;;10.15;3.85;;;20.90;99.90;;;;;;5032102;28;20132;-65
2022/07/08 09:36:46;;;;;;;8.10;5.10;;;21.00;99.90;;;;;;5026080;28;20029;-65
2022/07/08 09:39:25;;;;;;;7.88;4.35;;;21.20;99.90;;;;;;5033956;28;20024;-65
2022/07/08 09:41:51;;;;;;;8.48;4.32;;;21.20;99.90;;;;;;5032700;28;20036;-65
2022/07/08 09:44:21;;;;;;;11.13;4.47;;;21.40;99.90;;;;;;5032143;28;20043;-66
2022/07/08 09:46:47;;;;;;;8.85;4.93;;;21.60;99.90;;;;;;5026752;28;20075;-66
2022/07/08 09:49:33;;;;;;;7.63;5.05;;;21.60;99.90;;;;;;5032563;28;20052;-66
2022/07/08 09:51:59;;;;;;;7.70;4.13;;;21.70;99.90;;;;;;5030978;28;20029;-63
2022/07/08 09:54:27;;;;;;;7.15;4.30;;;21.80;99.90;;;;;;5027571;28;20116;-64
2022/07/08 09:57:05;;;;;;;11.07;4.78;;;21.90;99.90;;;;;;5027333;28;20042;-65
2022/07/08 09:59:32;;;;;;;6.32;3.92;;;22.00;99.90;;;;;;5022433;28;20059;-64
2022/07/08 10:01:59;;;;;;;11.77;5.10;;;22.10;99.90;;;;;;5032082;28;20029;-64
2022/07/08 10:04:25;;;;;;;7.55;3.50;;;22.20;99.90;;;;;;5027299;28;20497;-66
2022/07/08 10:06:52;;;;;;;9.98;4.88;;;22.40;99.90;;;;;;5029470;28;20432;-66
2022/07/08 10:09:20;;;;;;;8.10;4.10;;;22.40;99.90;;;;;;5026960;28;20029;-67
2022/07/08 10:11:47;;;;;;;4.70;3.47;;;22.50;99.90;;;;;;5024961;28;20036;-67
2022/07/08 10:14:14;;;;;;;7.20;3.55;;;22.60;99.90;;;;;;5028362;28;20025;-66
2022/07/08 10:16:41;;;;;;;8.02;4.15;;;22.80;99.90;;;;;;5028770;28;20025;-67
2022/07/08 10:19:28;;;;;;;7.47;4.05;;;23.10;99.90;;;;;;5030652;28;20045;-66
2022/07/08 10:21:57;;;;;;;8.73;4.55;;;23.10;99.90;;;;;;5023344;28;20081;-66
2022/07/08 10:24:27;;;;;;;9.43;4.38;;;22.90;99.90;;;;;;5028023;28;20045;-67
2022/07/08 10:26:58;;;;;;;9.57;4.30;;;22.90;99.90;;;;;;5029586;28;20028;-66
2022/07/08 10:29:33;;;;;;;8.68;3.95;;;23.00;99.90;;;;;;5026222;28;20029;-66
2022/07/08 10:32:00;;;;;;;11.90;4.90;;;23.20;99.90;;;;;;5026664;28;20472;-67
2022/07/08 10:34:33;;;;;;;9.25;3.67;;;23.40;99.90;;;;;;5025188;28;20056;-66
2022/07/08 10:37:01;;;;;;;13.13;4.32;;;23.50;99.90;;;;;;5031041;28;20192;-65
2022/07/08 10:39:29;;;;;;;13.35;4.68;;;23.70;99.90;;;;;;5027211;28;20029;-63
2022/07/08 10:42:03;;;;;;;6.05;4.50;;;23.80;99.90;;;;;;5028058;28;20075;-67
2022/07/08 10:44:44;;;;;;;17.13;7.32;;;23.80;99.90;;;;;;5029828;28;20033;-66
2022/07/08 10:47:14;;;;;;;9.27;4.60;;;23.80;99.90;;;;;;5031380;28;20392;-67
2022/07/08 10:49:47;;;;;;;7.32;4.70;;;23.90;99.90;;;;;;5023815;28;20099;-67
2022/07/08 10:52:15;;;;;;;7.13;4.25;;;23.80;99.90;;;;;;5019190;28;20037;-67
2022/07/08 10:54:42;;;;;;;9.25;4.70;;;24.00;99.90;;;;;;5023738;28;20075;-66
2022/07/08 10:57:26;;;;;;;7.97;4.80;;;24.10;99.90;;;;;;5022972;28;20064;-68
2022/07/08 11:00:10;;;;;;;8.57;4.53;;;24.20;99.90;;;;;;5025816;28;20032;-66
2022/07/08 11:02:46;;;;;;;9.52;5.35;;;24.30;99.90;;;;;;5027851;28;20032;-67
2022/07/08 11:05:36;;;;;;;8.05;5.47;;;24.40;99.90;;;;;;5028405;28;20501;-67
2022/07/08 11:08:20;;;;;;;10.95;5.28;;;24.50;99.90;;;;;;5030653;28;20033;-67
2022/07/08 11:10:51;;;;;;;6.90;4.68;;;24.90;99.90;;;;;;5027180;28;20390;-67
2022/07/08 11:13:21;;;;;;;8.65;4.80;;;25.20;99.90;;;;;;5032057;28;20017;-68
2022/07/08 11:15:47;;;;;;;7.47;4.68;;;25.40;99.90;;;;;;5028297;28;20086;-65
2022/07/08 11:18:26;;;;;;;8.93;5.07;;;25.70;99.90;;;;;;5030119;28;20067;-67
2022/07/08 11:21:01;;;;;;;10.00;5.47;;;26.10;99.90;;;;;;5028262;28;20069;-66
2022/07/08 11:23:30;;;;;;;8.25;5.10;;;26.00;99.90;;;;;;5024477;28;20447;-66
2022/07/08 11:25:58;;;;;;;8.50;4.78;;;26.40;99.90;;;;;;5026838;28;20130;-67
2022/07/08 11:28:24;;;;;;;7.90;5.13;;;26.80;99.90;;;;;;5032894;28;20033;-66
2022/07/08 11:30:50;;;;;;;9.20;4.38;;;26.90;99.20;;;;;;5025936;28;20029;-66
2022/07/08 11:33:16;;;;;;;26.13;6.40;;;26.60;99.00;;;;;;5022112;28;20037;-67
2022/07/08 11:35:42;;;;;;;25.95;5.43;;;26.60;98.60;;;;;;5021798;28;20032;-67
2022/07/08 11:38:08;;;;;;;14.23;5.88;;;26.50;99.50;;;;;;5030855;28;20034;-66
2022/07/08 11:40:43;;;;;;;17.08;6.45;;;26.60;98.30;;;;;;5025133;28;20025;-65
2022/07/08 11:43:21;;;;;;;10.05;5.80;;;26.70;98.20;;;;;;5030216;28;20505;-62
2022/07/08 11:45:46;;;;;;;7.43;5.50;;;26.90;98.00;;;;;;5024757;28;20116;-65
2022/07/08 11:48:12;;;;;;;8.93;5.93;;;26.80;97.30;;;;;;5029027;28;20121;-65
2022/07/08 11:50:47;;;;;;;9.65;5.22;;;26.80;97.30;;;;;;5025364;28;20101;-64
2022/07/08 11:53:22;;;;;;;8.50;5.53;;;27.00;97.10;;;;;;5023054;28;20025;-64
2022/07/08 11:55:48;;;;;;;10.25;5.18;;;27.30;96.50;;;;;;5022806;28;20061;-64
2022/07/08 11:58:24;;;;;;;10.43;5.28;;;27.30;96.60;;;;;;5029528;28;20454;-64
2022/07/08 12:00:53;;;;;;;9.65;4.93;;;27.20;96.90;;;;;;5025013;28;20032;-64
2022/07/08 12:03:19;;;;;;;10.18;4.93;;;27.60;96.70;;;;;;5031780;28;20025;-64
2022/07/08 12:05:47;;;;;;;7.95;5.43;;;27.80;95.60;;;;;;5034766;28;20432;-63
2022/07/08 12:08:14;;;;;;;11.38;5.10;;;27.50;95.90;;;;;;5030519;28;20329;-65
2022/07/08 12:10:40;;;;;;;8.50;5.45;;;28.00;95.20;;;;;;5026755;28;20889;-64
2022/07/08 12:13:05;;;;;;;6.93;4.70;;;28.20;95.00;;;;;;5032162;28;20036;-64
2022/07/08 12:15:36;;;;;;;8.93;5.10;;;28.20;94.20;;;;;;5032547;28;20033;-64
2022/07/08 12:18:04;;;;;;;8.27;5.20;;;28.10;94.10;;;;;;5029640;28;20029;-63
2022/07/08 12:20:37;;;;;;;12.10;5.93;;;27.90;94.60;;;;;;5027171;28;20417;-63
2022/07/08 12:23:03;;;;;;;9.73;6.05;;;28.20;93.90;;;;;;5032375;28;20026;-64
2022/07/08 12:25:48;;;;;;;9.88;4.97;;;27.80;93.30;;;;;;5028929;28;20435;-63
2022/07/08 12:28:21;;;;;;;9.27;5.25;;;27.60;94.10;;;;;;5027502;28;20113;-64
2022/07/08 12:30:47;;;;;;;7.38;4.93;;;27.80;93.50;;;;;;5028345;28;20021;-64
2022/07/08 12:33:12;;;;;;;10.52;4.70;;;28.20;93.50;;;;;;5030784;28;20117;-64
2022/07/08 12:35:38;;;;;;;12.27;5.57;;;28.80;92.70;;;;;;5020379;28;20038;-63
2022/07/08 12:38:08;;;;;;;6.30;5.25;;;28.50;92.30;;;;;;5028030;28;20052;-63
2022/07/08 12:40:39;;;;;;;13.48;4.65;;;28.30;92.40;;;;;;5024129;28;20036;-63
2022/07/08 12:43:07;;;;;;;9.88;5.28;;;28.20;92.90;;;;;;5024736;28;20052;-64
2022/07/08 12:45:33;;;;;;;9.30;4.75;;;28.40;91.90;;;;;;5031943;28;20041;-63
2022/07/08 12:48:00;;;;;;;7.38;5.40;;;28.80;92.20;;;;;;5025403;28;20026;-63